Terminal Aerodrome Forecast
Issued by NWS

Home | Current Version | Previous Version | Graphics & Text | Print | Product List | Glossary On
Versions: 1 2 3 4 5 6 7 8 9 10 11 12 13 14 15 16 17 18 19 20 21 22 23 24 25 26 27 28 29 30 31 32 33 34 35
000
FTUS43 KLOT 191400 AAA
TAFMDW
TAF AMD
KMDW 191403Z 1914/2012 23011G16KT P6SM FEW025 BKN035 BKN250
     FM191700 25012G20KT 6SM -SHRA VCTS SCT035CB BKN070
     FM192000 27013G20KT P6SM BKN040
     FM200100 28005KT P6SM SCT040
     FM200700 VRB03KT 4SM BR SCT250=

USA.gov is the U.S. government's official web portal to all federal, state and local government web resources and services.